createdAt,value
2022-12-01T00:01:40.254Z,8.35
2022-12-01T00:11:40.275Z,8.36
2022-12-01T00:21:40.291Z,8.35
2022-12-01T00:31:40.460Z,8.33
2022-12-01T00:41:40.257Z,8.31
2022-12-01T00:51:40.267Z,8.27
2022-12-01T01:01:40.385Z,8.21
2022-12-01T01:11:40.299Z,8.15
2022-12-01T01:21:40.500Z,8.10
2022-12-01T01:31:40.943Z,8.08
2022-12-01T01:41:41.314Z,8.05
2022-12-01T01:51:41.387Z,8.03
2022-12-01T02:01:41.425Z,8.02
2022-12-01T02:11:43.946Z,7.98
2022-12-01T02:21:45.011Z,7.95
2022-12-01T02:31:45.477Z,7.93
2022-12-01T02:41:45.455Z,7.91
2022-12-01T02:51:45.451Z,7.90
2022-12-01T03:01:45.730Z,7.87
2022-12-01T03:11:45.459Z,7.85
2022-12-01T03:21:46.121Z,7.83
2022-12-01T03:31:46.604Z,7.81
2022-12-01T03:41:46.540Z,7.80
2022-12-01T03:51:46.514Z,7.83
2022-12-01T04:01:46.470Z,7.84
2022-12-01T04:12:11.945Z,7.81
2022-12-01T04:22:12.613Z,7.78
2022-12-01T04:32:13.051Z,7.80
2022-12-01T04:42:13.638Z,7.83
2022-12-01T04:52:13.662Z,7.82
2022-12-01T05:02:13.658Z,7.80
2022-12-01T05:12:13.780Z,7.79
2022-12-01T05:22:13.618Z,7.76
2022-12-01T05:32:13.891Z,7.72
2022-12-01T05:42:13.604Z,7.68
2022-12-01T05:52:13.633Z,7.67
2022-12-01T06:02:13.679Z,7.67
2022-12-01T06:12:13.662Z,7.68
2022-12-01T06:22:13.656Z,7.69
2022-12-01T06:32:13.713Z,7.71
2022-12-01T06:42:13.680Z,7.75
2022-12-01T06:52:13.685Z,7.77
2022-12-01T07:02:14.593Z,7.75
2022-12-01T07:12:15.006Z,7.69
2022-12-01T07:22:15.297Z,7.61
2022-12-01T07:32:15.884Z,7.54
2022-12-01T07:42:15.757Z,7.48
2022-12-01T07:52:15.848Z,7.47
2022-12-01T08:02:16.000Z,7.51
2022-12-01T08:12:16.329Z,7.59
2022-12-01T08:22:16.905Z,7.68
2022-12-01T08:32:16.927Z,7.77
2022-12-01T08:42:16.904Z,7.84
2022-12-01T08:52:17.259Z,7.88
2022-12-01T09:02:22.232Z,7.90
2022-12-01T09:12:22.885Z,7.92
2022-12-01T09:22:22.920Z,8.03
2022-12-01T09:32:22.889Z,8.28
2022-12-01T09:42:24.920Z,8.54
2022-12-01T09:52:25.031Z,8.73
2022-12-01T10:02:24.989Z,8.84
2022-12-01T10:12:27.325Z,8.81
2022-12-01T10:22:26.938Z,8.77
2022-12-01T10:32:28.891Z,8.69
2022-12-01T10:42:29.084Z,8.46
2022-12-01T10:52:28.993Z,8.24
2022-12-01T11:02:29.241Z,8.20
2022-12-01T11:12:30.095Z,8.35
2022-12-01T11:22:30.411Z,8.53
2022-12-01T11:32:30.057Z,8.70
2022-12-01T11:42:30.063Z,8.80
2022-12-01T11:52:30.388Z,8.80
2022-12-01T12:02:30.145Z,8.83
2022-12-01T12:12:30.142Z,8.79
2022-12-01T12:22:30.109Z,8.68
2022-12-01T12:32:30.076Z,8.63
2022-12-01T12:42:30.178Z,8.75
2022-12-01T12:52:30.158Z,8.95
2022-12-01T13:02:30.276Z,9.19
2022-12-01T13:12:30.220Z,9.40
2022-12-01T13:22:30.189Z,9.51
2022-12-01T13:32:30.219Z,9.47
2022-12-01T13:42:32.127Z,9.38
2022-12-01T13:52:32.309Z,9.35
2022-12-01T14:02:32.327Z,9.24
2022-12-01T14:12:34.187Z,9.10
2022-12-01T14:22:34.272Z,8.96
2022-12-01T14:32:34.236Z,8.81
2022-12-01T14:42:53.794Z,8.64
2022-12-01T14:52:54.399Z,8.50
2022-12-01T15:02:54.346Z,8.39
2022-12-01T15:12:54.404Z,8.24
2022-12-01T15:22:54.303Z,8.10
2022-12-01T15:32:54.335Z,7.99
2022-12-01T15:42:54.338Z,7.93
2022-12-01T15:52:54.373Z,7.87
2022-12-01T16:02:54.561Z,7.80
2022-12-01T16:12:54.472Z,7.75
2022-12-01T16:22:56.174Z,7.70
2022-12-01T16:32:56.463Z,7.65
2022-12-01T16:42:56.639Z,7.63
2022-12-01T16:52:56.428Z,7.64
2022-12-01T17:02:56.580Z,7.66
2022-12-01T17:12:56.523Z,7.66
2022-12-01T17:22:59.731Z,7.65
2022-12-01T17:32:59.444Z,7.59
2022-12-01T17:42:59.600Z,7.52
2022-12-01T17:52:59.537Z,7.48
2022-12-01T18:02:59.637Z,7.46
2022-12-01T18:12:59.632Z,7.42
2022-12-01T18:22:59.556Z,7.38
2022-12-01T18:32:59.633Z,7.33
2022-12-01T18:43:01.801Z,7.27
2022-12-01T18:53:01.661Z,7.15
2022-12-01T19:03:02.586Z,6.97
2022-12-01T19:13:02.761Z,6.80
2022-12-01T19:23:02.735Z,6.65
2022-12-01T19:33:03.386Z,6.52
2022-12-01T19:43:03.606Z,6.40
2022-12-01T19:53:03.915Z,6.32
2022-12-01T20:03:03.757Z,6.29
2022-12-01T20:13:04.435Z,6.26
2022-12-01T20:23:04.714Z,6.21
2022-12-01T20:33:04.650Z,6.16
2022-12-01T20:43:04.735Z,6.11
2022-12-01T20:53:04.768Z,6.05
2022-12-01T21:03:04.773Z,5.98
2022-12-01T21:13:42.558Z,5.91
2022-12-01T21:23:42.756Z,5.87
2022-12-01T21:33:43.011Z,5.86
2022-12-01T21:43:42.714Z,5.84
2022-12-01T21:53:42.894Z,5.79
2022-12-01T22:03:42.827Z,5.73
2022-12-01T22:13:42.808Z,5.67
2022-12-01T22:23:42.910Z,5.61
2022-12-01T22:33:42.796Z,5.56
2022-12-01T22:43:42.948Z,5.51
2022-12-01T22:53:42.879Z,5.48
2022-12-01T23:03:42.832Z,5.49
2022-12-01T23:13:42.877Z,5.49
2022-12-01T23:23:42.976Z,5.45
2022-12-01T23:33:42.890Z,5.38
2022-12-01T23:43:42.877Z,5.31
2022-12-01T23:53:42.917Z,5.25
